sensor_id;sensor_type;location;lat;lon;timestamp;pressure;altitude;pressure_sealevel;temperature;humidity
51147;BME280;37207;53.060;18.726;2023-04-30T00:01:26;100724.23;;;9.13;79.13
51147;BME280;37207;53.060;18.726;2023-04-30T00:03:52;100720.06;;;9.11;78.78
51147;BME280;37207;53.060;18.726;2023-04-30T00:06:19;100720.37;;;9.08;78.75
51147;BME280;37207;53.060;18.726;2023-04-30T00:08:45;100721.27;;;9.05;78.73
51147;BME280;37207;53.060;18.726;2023-04-30T00:11:12;100719.75;;;9.02;78.59
51147;BME280;37207;53.060;18.726;2023-04-30T00:13:38;100720.29;;;8.99;78.43
51147;BME280;37207;53.060;18.726;2023-04-30T00:16:05;100720.86;;;8.95;78.41
51147;BME280;37207;53.060;18.726;2023-04-30T00:18:32;100723.31;;;8.90;78.16
51147;BME280;37207;53.060;18.726;2023-04-30T00:20:58;100726.41;;;8.82;78.01
51147;BME280;37207;53.060;18.726;2023-04-30T00:23:25;100729.36;;;8.77;78.13
51147;BME280;37207;53.060;18.726;2023-04-30T00:25:51;100727.79;;;8.73;78.51
51147;BME280;37207;53.060;18.726;2023-04-30T00:28:18;100728.25;;;8.71;78.44
51147;BME280;37207;53.060;18.726;2023-04-30T00:30:44;100730.23;;;8.68;78.48
51147;BME280;37207;53.060;18.726;2023-04-30T00:33:11;100733.27;;;8.64;78.21
51147;BME280;37207;53.060;18.726;2023-04-30T00:35:37;100744.17;;;8.57;78.15
51147;BME280;37207;53.060;18.726;2023-04-30T00:38:05;100746.71;;;8.50;78.13
51147;BME280;37207;53.060;18.726;2023-04-30T00:40:36;100751.95;;;8.44;78.22
51147;BME280;37207;53.060;18.726;2023-04-30T00:43:03;100754.60;;;8.39;78.19
51147;BME280;37207;53.060;18.726;2023-04-30T00:45:30;100757.34;;;8.33;78.14
51147;BME280;37207;53.060;18.726;2023-04-30T00:47:57;100765.77;;;8.28;77.95
51147;BME280;37207;53.060;18.726;2023-04-30T00:50:23;100765.20;;;8.21;78.04
51147;BME280;37207;53.060;18.726;2023-04-30T00:52:51;100768.83;;;8.16;77.89
51147;BME280;37207;53.060;18.726;2023-04-30T00:55:18;100773.51;;;8.10;77.88
51147;BME280;37207;53.060;18.726;2023-04-30T00:57:45;100778.36;;;8.06;77.92
51147;BME280;37207;53.060;18.726;2023-04-30T01:00:12;100782.98;;;7.99;78.16
51147;BME280;37207;53.060;18.726;2023-04-30T01:02:39;100785.06;;;7.93;78.05
51147;BME280;37207;53.060;18.726;2023-04-30T01:05:06;100787.39;;;7.87;77.82
51147;BME280;37207;53.060;18.726;2023-04-30T01:07:35;100793.81;;;7.82;78.01
51147;BME280;37207;53.060;18.726;2023-04-30T01:10:05;100795.58;;;7.78;78.03
51147;BME280;37207;53.060;18.726;2023-04-30T01:15:10;100800.71;;;7.66;78.17
51147;BME280;37207;53.060;18.726;2023-04-30T01:20:25;100803.91;;;7.55;78.09
51147;BME280;37207;53.060;18.726;2023-04-30T01:25:43;100808.80;;;7.45;78.18
51147;BME280;37207;53.060;18.726;2023-04-30T01:28:15;100809.85;;;7.39;78.14
51147;BME280;37207;53.060;18.726;2023-04-30T01:30:45;100808.83;;;7.33;78.19
51147;BME280;37207;53.060;18.726;2023-04-30T01:33:12;100809.96;;;7.27;78.26
51147;BME280;37207;53.060;18.726;2023-04-30T01:35:57;100812.61;;;7.20;78.23
51147;BME280;37207;53.060;18.726;2023-04-30T01:41:30;100820.17;;;7.08;78.33
51147;BME280;37207;53.060;18.726;2023-04-30T01:52:31;100829.28;;;6.84;78.16
51147;BME280;37207;53.060;18.726;2023-04-30T01:55:07;100832.38;;;6.75;78.11
51147;BME280;37207;53.060;18.726;2023-04-30T01:57:37;100828.55;;;6.66;78.08
51147;BME280;37207;53.060;18.726;2023-04-30T02:00:09;100835.42;;;6.59;78.23
51147;BME280;37207;53.060;18.726;2023-04-30T02:02:40;100835.52;;;6.53;78.24
51147;BME280;37207;53.060;18.726;2023-04-30T02:05:07;100831.90;;;6.47;78.41
51147;BME280;37207;53.060;18.726;2023-04-30T02:10:05;100838.80;;;6.37;78.60
51147;BME280;37207;53.060;18.726;2023-04-30T02:12:31;100838.72;;;6.31;78.65
51147;BME280;37207;53.060;18.726;2023-04-30T02:14:58;100843.36;;;6.24;78.91
51147;BME280;37207;53.060;18.726;2023-04-30T02:17:24;100844.35;;;6.19;78.83
51147;BME280;37207;53.060;18.726;2023-04-30T02:19:51;100843.19;;;6.14;78.83
51147;BME280;37207;53.060;18.726;2023-04-30T02:22:18;100848.48;;;6.09;79.06
51147;BME280;37207;53.060;18.726;2023-04-30T02:24:44;100850.38;;;6.06;79.29
51147;BME280;37207;53.060;18.726;2023-04-30T02:27:11;100851.95;;;6.02;79.37
51147;BME280;37207;53.060;18.726;2023-04-30T02:29:38;100854.70;;;5.98;79.43
51147;BME280;37207;53.060;18.726;2023-04-30T02:32:05;100856.40;;;5.93;79.44
51147;BME280;37207;53.060;18.726;2023-04-30T02:34:31;100860.67;;;5.90;79.57
51147;BME280;37207;53.060;18.726;2023-04-30T02:36:58;100861.98;;;5.86;79.62
51147;BME280;37207;53.060;18.726;2023-04-30T02:39:24;100856.88;;;5.82;79.70
51147;BME280;37207;53.060;18.726;2023-04-30T02:41:51;100863.70;;;5.79;79.81
51147;BME280;37207;53.060;18.726;2023-04-30T02:44:18;100865.71;;;5.75;79.75
51147;BME280;37207;53.060;18.726;2023-04-30T02:46:44;100865.91;;;5.72;79.80
51147;BME280;37207;53.060;18.726;2023-04-30T02:49:11;100869.27;;;5.68;79.93
51147;BME280;37207;53.060;18.726;2023-04-30T02:51:37;100873.97;;;5.66;80.25
51147;BME280;37207;53.060;18.726;2023-04-30T02:54:04;100877.52;;;5.63;80.06
51147;BME280;37207;53.060;18.726;2023-04-30T02:56:30;100883.45;;;5.58;80.19
51147;BME280;37207;53.060;18.726;2023-04-30T02:58:57;100883.67;;;5.55;80.12
51147;BME280;37207;53.060;18.726;2023-04-30T03:01:24;100882.29;;;5.52;80.40
51147;BME280;37207;53.060;18.726;2023-04-30T03:03:50;100883.92;;;5.50;80.42
51147;BME280;37207;53.060;18.726;2023-04-30T03:06:17;100887.17;;;5.47;80.37
51147;BME280;37207;53.060;18.726;2023-04-30T03:08:43;100888.38;;;5.43;80.47
51147;BME280;37207;53.060;18.726;2023-04-30T03:11:10;100890.70;;;5.39;80.52
51147;BME280;37207;53.060;18.726;2023-04-30T03:13:37;100893.93;;;5.37;80.56
51147;BME280;37207;53.060;18.726;2023-04-30T03:16:03;100893.59;;;5.35;80.72
51147;BME280;37207;53.060;18.726;2023-04-30T03:18:30;100893.28;;;5.33;80.75
51147;BME280;37207;53.060;18.726;2023-04-30T03:20:57;100895.93;;;5.30;80.80
51147;BME280;37207;53.060;18.726;2023-04-30T03:23:26;100898.33;;;5.29;80.86
51147;BME280;37207;53.060;18.726;2023-04-30T03:25:53;100898.79;;;5.27;80.82
51147;BME280;37207;53.060;18.726;2023-04-30T03:28:20;100901.61;;;5.24;80.78
51147;BME280;37207;53.060;18.726;2023-04-30T03:30:46;100908.70;;;5.20;80.88
51147;BME280;37207;53.060;18.726;2023-04-30T03:33:13;100903.48;;;5.17;81.07
51147;BME280;37207;53.060;18.726;2023-04-30T03:35:39;100911.77;;;5.15;81.10
51147;BME280;37207;53.060;18.726;2023-04-30T03:38:06;100915.62;;;5.12;81.17
51147;BME280;37207;53.060;18.726;2023-04-30T03:40:33;100916.69;;;5.08;81.03
51147;BME280;37207;53.060;18.726;2023-04-30T03:42:59;100918.51;;;5.05;81.35
51147;BME280;37207;53.060;18.726;2023-04-30T03:45:26;100920.26;;;5.04;81.45
51147;BME280;37207;53.060;18.726;2023-04-30T03:47:53;100927.77;;;5.02;81.34
51147;BME280;37207;53.060;18.726;2023-04-30T03:50:19;100931.93;;;5.01;81.53
51147;BME280;37207;53.060;18.726;2023-04-30T03:52:46;100928.93;;;5.09;81.86
51147;BME280;37207;53.060;18.726;2023-04-30T03:55:13;100932.32;;;5.13;81.77
51147;BME280;37207;53.060;18.726;2023-04-30T03:57:40;100937.25;;;5.13;81.60
51147;BME280;37207;53.060;18.726;2023-04-30T04:00:08;100942.81;;;5.16;81.48
51147;BME280;37207;53.060;18.726;2023-04-30T04:02:43;100947.83;;;5.20;81.63
51147;BME280;37207;53.060;18.726;2023-04-30T04:05:10;100952.94;;;5.24;81.46
51147;BME280;37207;53.060;18.726;2023-04-30T04:07:37;100952.67;;;5.31;81.41
51147;BME280;37207;53.060;18.726;2023-04-30T04:10:04;100956.67;;;5.35;81.38
51147;BME280;37207;53.060;18.726;2023-04-30T04:12:31;100956.41;;;5.50;81.36
51147;BME280;37207;53.060;18.726;2023-04-30T04:14:57;100958.95;;;5.49;81.09
51147;BME280;37207;53.060;18.726;2023-04-30T04:17:24;100964.15;;;5.48;81.22
51147;BME280;37207;53.060;18.726;2023-04-30T04:19:51;100967.79;;;5.44;81.01
51147;BME280;37207;53.060;18.726;2023-04-30T04:22:18;100965.25;;;5.64;81.64
51147;BME280;37207;53.060;18.726;2023-04-30T04:24:45;100967.98;;;5.98;81.58
51147;BME280;37207;53.060;18.726;2023-04-30T04:27:14;100972.16;;;6.15;80.87
51147;BME280;37207;53.060;18.726;2023-04-30T04:29:43;100971.86;;;6.47;80.80
51147;BME280;37207;53.060;18.726;2023-04-30T04:32:09;100978.86;;;6.68;80.30
51147;BME280;37207;53.060;18.726;2023-04-30T04:34:37;100981.55;;;6.94;80.00
51147;BME280;37207;53.060;18.726;2023-04-30T04:37:04;100984.18;;;7.31;79.43
51147;BME280;37207;53.060;18.726;2023-04-30T04:39:31;100991.41;;;7.50;78.72
51147;BME280;37207;53.060;18.726;2023-04-30T04:41:57;100994.70;;;7.45;77.70
51147;BME280;37207;53.060;18.726;2023-04-30T04:44:24;100997.98;;;7.40;77.37
51147;BME280;37207;53.060;18.726;2023-04-30T04:46:51;100997.38;;;7.32;77.28
51147;BME280;37207;53.060;18.726;2023-04-30T04:49:19;101001.17;;;7.24;76.97
51147;BME280;37207;53.060;18.726;2023-04-30T04:51:46;101002.84;;;7.16;76.87
51147;BME280;37207;53.060;18.726;2023-04-30T04:54:13;101003.58;;;7.05;76.89
51147;BME280;37207;53.060;18.726;2023-04-30T04:56:39;101006.28;;;6.91;76.68
51147;BME280;37207;53.060;18.726;2023-04-30T04:59:06;101005.95;;;6.82;76.94
51147;BME280;37207;53.060;18.726;2023-04-30T05:01:34;101007.29;;;6.82;77.25
51147;BME280;37207;53.060;18.726;2023-04-30T05:04:01;101017.81;;;6.85;77.10
51147;BME280;37207;53.060;18.726;2023-04-30T05:06:28;101016.16;;;6.90;77.32
51147;BME280;37207;53.060;18.726;2023-04-30T05:08:54;101020.79;;;6.96;76.94
51147;BME280;37207;53.060;18.726;2023-04-30T05:11:21;101025.45;;;6.93;76.99
51147;BME280;37207;53.060;18.726;2023-04-30T05:13:48;101030.23;;;6.87;76.70
51147;BME280;37207;53.060;18.726;2023-04-30T05:16:15;101026.74;;;6.84;77.08
51147;BME280;37207;53.060;18.726;2023-04-30T05:18:41;101033.61;;;6.80;77.03
51147;BME280;37207;53.060;18.726;2023-04-30T05:21:08;101039.91;;;6.78;77.08
51147;BME280;37207;53.060;18.726;2023-04-30T05:23:34;101042.00;;;6.76;77.13
51147;BME280;37207;53.060;18.726;2023-04-30T05:26:01;101044.13;;;6.75;77.22
51147;BME280;37207;53.060;18.726;2023-04-30T05:28:28;101045.61;;;6.74;77.58
51147;BME280;37207;53.060;18.726;2023-04-30T05:30:55;101051.20;;;6.74;77.05
51147;BME280;37207;53.060;18.726;2023-04-30T05:33:21;101051.61;;;6.78;77.33
51147;BME280;37207;53.060;18.726;2023-04-30T05:35:48;101056.32;;;6.88;77.32
51147;BME280;37207;53.060;18.726;2023-04-30T05:38:14;101061.75;;;6.93;77.42
51147;BME280;37207;53.060;18.726;2023-04-30T05:40:41;101058.90;;;6.94;77.18
51147;BME280;37207;53.060;18.726;2023-04-30T05:43:07;101065.13;;;6.95;77.11
51147;BME280;37207;53.060;18.726;2023-04-30T05:45:34;101069.70;;;6.97;77.33
51147;BME280;37207;53.060;18.726;2023-04-30T05:48:00;101069.02;;;6.99;77.18
51147;BME280;37207;53.060;18.726;2023-04-30T05:50:27;101069.02;;;7.01;77.40
51147;BME280;37207;53.060;18.726;2023-04-30T05:52:53;101073.91;;;7.07;77.15
51147;BME280;37207;53.060;18.726;2023-04-30T05:55:20;101082.27;;;7.08;76.81
51147;BME280;37207;53.060;18.726;2023-04-30T05:57:46;101081.88;;;7.08;76.75
51147;BME280;37207;53.060;18.726;2023-04-30T06:00:13;101075.10;;;7.10;76.80
51147;BME280;37207;53.060;18.726;2023-04-30T06:02:41;101079.36;;;7.14;76.88
51147;BME280;37207;53.060;18.726;2023-04-30T06:05:08;101082.20;;;7.22;77.24
51147;BME280;37207;53.060;18.726;2023-04-30T06:07:35;101086.61;;;7.29;77.02
51147;BME280;37207;53.060;18.726;2023-04-30T06:10:02;101087.21;;;7.32;76.96
51147;BME280;37207;53.060;18.726;2023-04-30T06:12:28;101090.70;;;7.38;76.90
51147;BME280;37207;53.060;18.726;2023-04-30T06:14:55;101098.34;;;7.40;76.21
51147;BME280;37207;53.060;18.726;2023-04-30T06:17:22;101095.69;;;7.41;76.37
51147;BME280;37207;53.060;18.726;2023-04-30T06:19:48;101101.14;;;7.48;76.59
51147;BME280;37207;53.060;18.726;2023-04-30T06:22:15;101102.80;;;7.56;76.49
51147;BME280;37207;53.060;18.726;2023-04-30T06:24:41;101104.53;;;7.58;75.87
51147;BME280;37207;53.060;18.726;2023-04-30T06:27:08;101106.25;;;7.60;75.87
51147;BME280;37207;53.060;18.726;2023-04-30T06:29:34;101107.66;;;7.60;75.79
51147;BME280;37207;53.060;18.726;2023-04-30T06:32:01;101105.80;;;7.65;76.04
51147;BME280;37207;53.060;18.726;2023-04-30T06:34:27;101113.36;;;7.71;75.76
51147;BME280;37207;53.060;18.726;2023-04-30T06:36:54;101114.17;;;7.74;75.54
51147;BME280;37207;53.060;18.726;2023-04-30T06:39:21;101112.78;;;7.82;76.10
51147;BME280;37207;53.060;18.726;2023-04-30T06:41:48;101115.81;;;7.90;75.96
51147;BME280;37207;53.060;18.726;2023-04-30T06:44:15;101117.52;;;8.01;75.76
51147;BME280;37207;53.060;18.726;2023-04-30T06:46:42;101116.88;;;8.09;75.50
51147;BME280;37207;53.060;18.726;2023-04-30T06:49:09;101118.30;;;8.16;74.79
51147;BME280;37207;53.060;18.726;2023-04-30T06:51:35;101119.48;;;8.20;74.73
51147;BME280;37207;53.060;18.726;2023-04-30T06:54:02;101120.17;;;8.26;74.61
51147;BME280;37207;53.060;18.726;2023-04-30T06:56:28;101124.02;;;8.34;74.51
51147;BME280;37207;53.060;18.726;2023-04-30T06:58:56;101124.98;;;8.43;73.94
51147;BME280;37207;53.060;18.726;2023-04-30T07:01:22;101127.09;;;8.51;73.98
51147;BME280;37207;53.060;18.726;2023-04-30T07:03:49;101127.23;;;8.64;73.78
51147;BME280;37207;53.060;18.726;2023-04-30T07:06:16;101128.66;;;8.77;73.40
51147;BME280;37207;53.060;18.726;2023-04-30T07:08:43;101126.63;;;8.91;73.43
51147;BME280;37207;53.060;18.726;2023-04-30T07:11:09;101129.98;;;9.11;73.68
51147;BME280;37207;53.060;18.726;2023-04-30T07:13:37;101137.06;;;9.35;73.41
51147;BME280;37207;53.060;18.726;2023-04-30T07:16:04;101135.95;;;9.53;72.37
51147;BME280;37207;53.060;18.726;2023-04-30T07:18:31;101133.09;;;9.65;71.85
51147;BME280;37207;53.060;18.726;2023-04-30T07:20:57;101137.10;;;9.83;71.78
51147;BME280;37207;53.060;18.726;2023-04-30T07:23:24;101140.70;;;10.00;70.76
51147;BME280;37207;53.060;18.726;2023-04-30T07:25:50;101141.22;;;10.10;70.48
51147;BME280;37207;53.060;18.726;2023-04-30T07:28:17;101140.71;;;10.27;70.05
51147;BME280;37207;53.060;18.726;2023-04-30T07:30:44;101143.88;;;10.47;69.71
51147;BME280;37207;53.060;18.726;2023-04-30T07:33:11;101146.11;;;10.69;69.39
51147;BME280;37207;53.060;18.726;2023-04-30T07:35:38;101150.55;;;10.82;68.37
51147;BME280;37207;53.060;18.726;2023-04-30T07:38:04;101151.94;;;10.98;68.40
51147;BME280;37207;53.060;18.726;2023-04-30T07:40:31;101152.17;;;11.13;67.98
51147;BME280;37207;53.060;18.726;2023-04-30T07:42:58;101154.57;;;11.33;67.91
51147;BME280;37207;53.060;18.726;2023-04-30T07:45:24;101156.45;;;11.42;66.52
51147;BME280;37207;53.060;18.726;2023-04-30T07:47:51;101155.15;;;11.53;67.23
51147;BME280;37207;53.060;18.726;2023-04-30T07:50:18;101162.85;;;11.77;66.59
51147;BME280;37207;53.060;18.726;2023-04-30T07:52:44;101164.64;;;11.82;63.89
51147;BME280;37207;53.060;18.726;2023-04-30T07:55:11;101162.27;;;11.73;63.09
51147;BME280;37207;53.060;18.726;2023-04-30T07:57:38;101168.03;;;11.69;63.14
51147;BME280;37207;53.060;18.726;2023-04-30T08:00:05;101168.59;;;11.60;63.29
51147;BME280;37207;53.060;18.726;2023-04-30T08:02:38;101171.86;;;11.76;64.55
51147;BME280;37207;53.060;18.726;2023-04-30T08:05:05;101172.23;;;12.10;65.11
51147;BME280;37207;53.060;18.726;2023-04-30T08:07:32;101173.87;;;12.41;63.91
51147;BME280;37207;53.060;18.726;2023-04-30T08:09:59;101174.94;;;12.51;61.69
51147;BME280;37207;53.060;18.726;2023-04-30T08:12:25;101177.15;;;12.45;60.49
51147;BME280;37207;53.060;18.726;2023-04-30T08:15:02;101185.21;;;12.46;61.44
51147;BME280;37207;53.060;18.726;2023-04-30T08:17:31;101174.71;;;12.65;61.72
51147;BME280;37207;53.060;18.726;2023-04-30T08:19:58;101176.11;;;12.90;62.49
51147;BME280;37207;53.060;18.726;2023-04-30T08:22:25;101182.59;;;13.16;60.93
51147;BME280;37207;53.060;18.726;2023-04-30T08:24:52;101183.92;;;13.16;59.43
51147;BME280;37207;53.060;18.726;2023-04-30T08:27:21;101181.83;;;13.28;60.81
51147;BME280;37207;53.060;18.726;2023-04-30T08:29:47;101187.54;;;13.52;60.27
51147;BME280;37207;53.060;18.726;2023-04-30T08:32:14;101184.14;;;13.64;58.49
51147;BME280;37207;53.060;18.726;2023-04-30T08:34:41;101184.59;;;13.70;58.40
51147;BME280;37207;53.060;18.726;2023-04-30T08:37:08;101187.77;;;13.81;57.97
51147;BME280;37207;53.060;18.726;2023-04-30T08:39:35;101187.98;;;13.92;57.67
51147;BME280;37207;53.060;18.726;2023-04-30T08:42:03;101189.82;;;14.03;57.64
51147;BME280;37207;53.060;18.726;2023-04-30T08:44:33;101192.73;;;13.99;55.38
51147;BME280;37207;53.060;18.726;2023-04-30T08:47:05;101194.11;;;13.86;54.01
51147;BME280;37207;53.060;18.726;2023-04-30T08:49:33;101197.53;;;13.78;53.52
51147;BME280;37207;53.060;18.726;2023-04-30T08:52:02;101196.86;;;13.72;53.18
51147;BME280;37207;53.060;18.726;2023-04-30T08:54:33;101191.20;;;13.66;54.82
51147;BME280;37207;53.060;18.726;2023-04-30T08:57:01;101191.86;;;13.82;55.08
51147;BME280;37207;53.060;18.726;2023-04-30T08:59:28;101201.67;;;13.92;53.95
51147;BME280;37207;53.060;18.726;2023-04-30T09:01:54;101201.61;;;13.83;52.79
51147;BME280;37207;53.060;18.726;2023-04-30T09:04:21;101201.70;;;13.77;52.43
51147;BME280;37207;53.060;18.726;2023-04-30T09:06:51;101200.64;;;13.75;52.56
51147;BME280;37207;53.060;18.726;2023-04-30T09:09:18;101201.98;;;13.95;52.94
51147;BME280;37207;53.060;18.726;2023-04-30T09:11:44;101205.28;;;14.19;52.67
51147;BME280;37207;53.060;18.726;2023-04-30T09:14:11;101207.91;;;14.64;52.40
51147;BME280;37207;53.060;18.726;2023-04-30T09:16:48;101211.95;;;15.28;51.09
51147;BME280;37207;53.060;18.726;2023-04-30T09:19:29;101211.50;;;15.36;48.16
51147;BME280;37207;53.060;18.726;2023-04-30T09:21:56;101209.86;;;15.17;48.41
51147;BME280;37207;53.060;18.726;2023-04-30T09:24:24;101208.72;;;15.31;48.38
51147;BME280;37207;53.060;18.726;2023-04-30T09:26:50;101209.04;;;15.43;48.39
51147;BME280;37207;53.060;18.726;2023-04-30T09:29:17;101215.09;;;15.58;49.39
51147;BME280;37207;53.060;18.726;2023-04-30T09:31:45;101211.80;;;15.81;49.08
51147;BME280;37207;53.060;18.726;2023-04-30T09:34:12;101221.13;;;15.90;47.02
51147;BME280;37207;53.060;18.726;2023-04-30T09:36:52;101219.66;;;15.70;47.21
51147;BME280;37207;53.060;18.726;2023-04-30T09:39:20;101223.09;;;15.63;46.81
51147;BME280;37207;53.060;18.726;2023-04-30T09:41:46;101226.65;;;15.56;47.19
51147;BME280;37207;53.060;18.726;2023-04-30T09:44:34;101227.35;;;15.61;47.24
51147;BME280;37207;53.060;18.726;2023-04-30T09:47:02;101225.27;;;15.72;48.41
51147;BME280;37207;53.060;18.726;2023-04-30T09:49:28;101224.00;;;15.97;48.83
51147;BME280;37207;53.060;18.726;2023-04-30T09:51:59;101225.35;;;16.13;47.04
51147;BME280;37207;53.060;18.726;2023-04-30T09:54:28;101228.61;;;16.02;45.32
51147;BME280;37207;53.060;18.726;2023-04-30T09:56:57;101227.55;;;15.82;44.63
51147;BME280;37207;53.060;18.726;2023-04-30T09:59:28;101224.21;;;15.92;47.55
51147;BME280;37207;53.060;18.726;2023-04-30T10:02:00;101225.80;;;16.19;46.31
51147;BME280;37207;53.060;18.726;2023-04-30T10:04:36;101223.80;;;16.28;46.46
51147;BME280;37207;53.060;18.726;2023-04-30T10:07:07;101221.14;;;16.41;44.72
51147;BME280;37207;53.060;18.726;2023-04-30T10:09:39;101218.45;;;16.38;45.25
51147;BME280;37207;53.060;18.726;2023-04-30T10:12:12;101215.84;;;16.49;45.18
51147;BME280;37207;53.060;18.726;2023-04-30T10:14:51;101209.72;;;16.76;45.29
51147;BME280;37207;53.060;18.726;2023-04-30T10:17:19;101209.33;;;17.13;46.06
51147;BME280;37207;53.060;18.726;2023-04-30T10:19:50;101204.71;;;17.49;45.31
51147;BME280;37207;53.060;18.726;2023-04-30T10:22:18;101208.09;;;17.86;44.31
51147;BME280;37207;53.060;18.726;2023-04-30T10:24:44;101203.07;;;18.05;41.88
51147;BME280;37207;53.060;18.726;2023-04-30T10:27:12;101204.92;;;18.29;41.03
51147;BME280;37207;53.060;18.726;2023-04-30T10:29:39;101199.45;;;18.83;41.54
51147;BME280;37207;53.060;18.726;2023-04-30T10:32:07;101198.10;;;19.79;41.38
51147;BME280;37207;53.060;18.726;2023-04-30T10:35:21;101199.61;;;20.96;40.59
51147;BME280;37207;53.060;18.726;2023-04-30T10:37:56;101195.38;;;22.35;38.34
51147;BME280;37207;53.060;18.726;2023-04-30T10:40:25;101195.02;;;23.27;36.31
51147;BME280;37207;53.060;18.726;2023-04-30T10:42:53;101192.04;;;23.61;33.50
51147;BME280;37207;53.060;18.726;2023-04-30T10:45:37;101199.61;;;23.14;31.76
51147;BME280;37207;53.060;18.726;2023-04-30T10:48:05;101196.71;;;22.31;33.54
51147;BME280;37207;53.060;18.726;2023-04-30T10:50:39;101195.19;;;21.84;34.14
51147;BME280;37207;53.060;18.726;2023-04-30T10:53:11;101193.14;;;22.05;33.84
51147;BME280;37207;53.060;18.726;2023-04-30T10:55:48;101188.71;;;22.57;33.75
51147;BME280;37207;53.060;18.726;2023-04-30T10:58:24;101192.39;;;23.13;32.40
51147;BME280;37207;53.060;18.726;2023-04-30T11:00:59;101191.11;;;23.68;32.84
51147;BME280;37207;53.060;18.726;2023-04-30T11:03:30;101190.38;;;24.45;34.10
51147;BME280;37207;53.060;18.726;2023-04-30T11:05:59;101197.11;;;25.03;31.77
51147;BME280;37207;53.060;18.726;2023-04-30T11:08:35;101200.05;;;25.04;30.67
51147;BME280;37207;53.060;18.726;2023-04-30T11:11:02;101199.59;;;24.83;30.98
51147;BME280;37207;53.060;18.726;2023-04-30T11:13:47;101202.40;;;24.28;30.35
51147;BME280;37207;53.060;18.726;2023-04-30T11:16:43;101195.61;;;23.83;32.61
51147;BME280;37207;53.060;18.726;2023-04-30T11:19:14;101195.73;;;23.51;32.35
51147;BME280;37207;53.060;18.726;2023-04-30T11:22:27;101194.24;;;23.17;33.21
51147;BME280;37207;53.060;18.726;2023-04-30T11:29:47;101196.75;;;22.50;34.89
51147;BME280;37207;53.060;18.726;2023-04-30T11:32:15;101200.38;;;22.14;34.46
51147;BME280;37207;53.060;18.726;2023-04-30T11:34:43;101200.64;;;21.95;35.66
51147;BME280;37207;53.060;18.726;2023-04-30T11:37:39;101201.07;;;21.93;35.78
51147;BME280;37207;53.060;18.726;2023-04-30T11:40:06;101202.45;;;21.93;36.60
51147;BME280;37207;53.060;18.726;2023-04-30T11:42:34;101202.85;;;21.95;36.43
51147;BME280;37207;53.060;18.726;2023-04-30T11:45:09;101206.23;;;21.88;35.82
51147;BME280;37207;53.060;18.726;2023-04-30T11:47:48;101204.28;;;21.64;34.17
51147;BME280;37207;53.060;18.726;2023-04-30T11:50:19;101201.02;;;21.43;35.67
51147;BME280;37207;53.060;18.726;2023-04-30T11:52:53;101198.56;;;21.45;36.43
51147;BME280;37207;53.060;18.726;2023-04-30T11:55:21;101199.35;;;21.63;37.38
51147;BME280;37207;53.060;18.726;2023-04-30T11:57:50;101203.77;;;21.57;35.59
51147;BME280;37207;53.060;18.726;2023-04-30T12:00:19;101210.48;;;21.37;34.91
51147;BME280;37207;53.060;18.726;2023-04-30T12:02:48;101210.08;;;21.02;34.64
51147;BME280;37207;53.060;18.726;2023-04-30T12:05:17;101208.23;;;20.76;35.13
51147;BME280;37207;53.060;18.726;2023-04-30T12:07:56;101206.38;;;20.62;35.52
51147;BME280;37207;53.060;18.726;2023-04-30T12:10:23;101204.80;;;20.57;36.74
51147;BME280;37207;53.060;18.726;2023-04-30T12:12:52;101201.20;;;20.61;36.36
51147;BME280;37207;53.060;18.726;2023-04-30T12:15:22;101205.11;;;20.76;36.93
51147;BME280;37207;53.060;18.726;2023-04-30T12:17:53;101205.13;;;20.95;36.72
51147;BME280;37207;53.060;18.726;2023-04-30T12:20:21;101197.98;;;21.15;36.96
51147;BME280;37207;53.060;18.726;2023-04-30T12:22:48;101199.46;;;21.31;36.26
51147;BME280;37207;53.060;18.726;2023-04-30T12:25:18;101196.77;;;21.35;35.35
51147;BME280;37207;53.060;18.726;2023-04-30T12:27:46;101187.94;;;21.32;35.65
51147;BME280;37207;53.060;18.726;2023-04-30T12:30:14;101190.23;;;21.33;36.11
51147;BME280;37207;53.060;18.726;2023-04-30T12:32:42;101186.80;;;21.38;36.17
51147;BME280;37207;53.060;18.726;2023-04-30T12:35:14;101188.33;;;21.71;36.16
51147;BME280;37207;53.060;18.726;2023-04-30T12:37:45;101188.23;;;21.67;35.13
51147;BME280;37207;53.060;18.726;2023-04-30T12:40:13;101184.96;;;21.76;35.61
51147;BME280;37207;53.060;18.726;2023-04-30T12:42:43;101187.64;;;21.98;34.62
51147;BME280;37207;53.060;18.726;2023-04-30T12:45:10;101189.49;;;22.12;33.79
51147;BME280;37207;53.060;18.726;2023-04-30T12:47:41;101192.59;;;22.10;33.84
51147;BME280;37207;53.060;18.726;2023-04-30T12:50:11;101183.81;;;22.15;33.62
51147;BME280;37207;53.060;18.726;2023-04-30T12:52:38;101183.68;;;22.27;34.57
51147;BME280;37207;53.060;18.726;2023-04-30T12:55:15;101189.73;;;22.48;33.70
51147;BME280;37207;53.060;18.726;2023-04-30T12:58:01;101186.29;;;22.51;32.93
51147;BME280;37207;53.060;18.726;2023-04-30T13:00:28;101180.25;;;22.60;33.56
51147;BME280;37207;53.060;18.726;2023-04-30T13:02:54;101182.48;;;22.62;32.66
51147;BME280;37207;53.060;18.726;2023-04-30T13:05:21;101181.50;;;22.46;32.62
51147;BME280;37207;53.060;18.726;2023-04-30T13:07:51;101185.36;;;22.38;32.68
51147;BME280;37207;53.060;18.726;2023-04-30T13:10:21;101182.02;;;22.20;33.30
51147;BME280;37207;53.060;18.726;2023-04-30T13:12:48;101179.23;;;21.70;32.65
51147;BME280;37207;53.060;18.726;2023-04-30T13:15:14;101185.77;;;20.83;32.50
51147;BME280;37207;53.060;18.726;2023-04-30T13:17:41;101190.39;;;20.45;32.91
51147;BME280;37207;53.060;18.726;2023-04-30T13:20:08;101187.77;;;20.10;33.26